sensor_id;sensor_type;location;lat;lon;timestamp;P1;durP1;ratioP1;P2;durP2;ratioP2
15913;SDS011;8055;51.930;8.840;2022-08-11T00:01:43;4.97;;;2.95;;
15913;SDS011;8055;51.930;8.840;2022-08-11T00:04:10;5.05;;;2.40;;
15913;SDS011;8055;51.930;8.840;2022-08-11T00:06:38;3.78;;;2.58;;
15913;SDS011;8055;51.930;8.840;2022-08-11T00:09:08;6.60;;;3.20;;
15913;SDS011;8055;51.930;8.840;2022-08-11T00:11:38;7.10;;;2.60;;
15913;SDS011;8055;51.930;8.840;2022-08-11T00:14:39;4.25;;;2.67;;
15913;SDS011;8055;51.930;8.840;2022-08-11T00:17:02;3.22;;;2.60;;
15913;SDS011;8055;51.930;8.840;2022-08-11T00:19:30;4.17;;;3.10;;
15913;SDS011;8055;51.930;8.840;2022-08-11T00:21:58;4.05;;;2.90;;
15913;SDS011;8055;51.930;8.840;2022-08-11T00:24:30;8.95;;;3.30;;
15913;SDS011;8055;51.930;8.840;2022-08-11T00:27:01;8.95;;;3.65;;
15913;SDS011;8055;51.930;8.840;2022-08-11T00:29:27;6.88;;;3.38;;
15913;SDS011;8055;51.930;8.840;2022-08-11T00:31:54;4.80;;;3.30;;
15913;SDS011;8055;51.930;8.840;2022-08-11T00:34:22;6.38;;;3.30;;
15913;SDS011;8055;51.930;8.840;2022-08-11T00:37:01;7.60;;;3.20;;
15913;SDS011;8055;51.930;8.840;2022-08-11T00:39:41;7.93;;;3.40;;
15913;SDS011;8055;51.930;8.840;2022-08-11T00:42:16;5.13;;;3.05;;
15913;SDS011;8055;51.930;8.840;2022-08-11T00:50:26;6.97;;;3.45;;
15913;SDS011;8055;51.930;8.840;2022-08-11T00:53:04;5.15;;;3.20;;
15913;SDS011;8055;51.930;8.840;2022-08-11T01:37:56;4.25;;;2.60;;
15913;SDS011;8055;51.930;8.840;2022-08-11T01:43:13;3.63;;;2.95;;
15913;SDS011;8055;51.930;8.840;2022-08-11T01:48:56;3.55;;;2.78;;
15913;SDS011;8055;51.930;8.840;2022-08-11T01:54:23;3.85;;;2.67;;
15913;SDS011;8055;51.930;8.840;2022-08-11T02:00:05;4.47;;;2.88;;
15913;SDS011;8055;51.930;8.840;2022-08-11T02:02:57;5.95;;;3.00;;
15913;SDS011;8055;51.930;8.840;2022-08-11T02:09:11;6.07;;;3.10;;
15913;SDS011;8055;51.930;8.840;2022-08-11T02:11:44;7.85;;;3.72;;
15913;SDS011;8055;51.930;8.840;2022-08-11T02:17:18;4.90;;;2.92;;
15913;SDS011;8055;51.930;8.840;2022-08-11T02:26:04;4.75;;;2.88;;
15913;SDS011;8055;51.930;8.840;2022-08-11T02:31:16;6.95;;;3.15;;
15913;SDS011;8055;51.930;8.840;2022-08-11T02:39:28;5.05;;;3.00;;
15913;SDS011;8055;51.930;8.840;2022-08-11T02:42:16;5.10;;;2.97;;
15913;SDS011;8055;51.930;8.840;2022-08-11T02:45:53;4.20;;;3.20;;
15913;SDS011;8055;51.930;8.840;2022-08-11T02:48:03;3.80;;;2.92;;
15913;SDS011;8055;51.930;8.840;2022-08-11T02:51:11;5.63;;;3.15;;
15913;SDS011;8055;51.930;8.840;2022-08-11T02:56:43;4.85;;;3.40;;
15913;SDS011;8055;51.930;8.840;2022-08-11T02:59:24;3.95;;;3.03;;
15913;SDS011;8055;51.930;8.840;2022-08-11T03:10:53;4.53;;;3.30;;
15913;SDS011;8055;51.930;8.840;2022-08-11T03:25:29;5.95;;;3.28;;
15913;SDS011;8055;51.930;8.840;2022-08-11T03:31:09;6.45;;;3.40;;
15913;SDS011;8055;51.930;8.840;2022-08-11T03:34:02;4.88;;;2.75;;
15913;SDS011;8055;51.930;8.840;2022-08-11T03:39:17;3.80;;;3.22;;
15913;SDS011;8055;51.930;8.840;2022-08-11T03:55:39;8.70;;;3.08;;
15913;SDS011;8055;51.930;8.840;2022-08-11T04:15:12;3.63;;;2.80;;
15913;SDS011;8055;51.930;8.840;2022-08-11T04:44:40;4.97;;;2.90;;
15913;SDS011;8055;51.930;8.840;2022-08-11T04:56:46;3.22;;;2.80;;
15913;SDS011;8055;51.930;8.840;2022-08-11T05:13:34;2.92;;;2.45;;
15913;SDS011;8055;51.930;8.840;2022-08-11T05:16:27;4.07;;;2.42;;
15913;SDS011;8055;51.930;8.840;2022-08-11T05:19:19;4.47;;;2.13;;
15913;SDS011;8055;51.930;8.840;2022-08-11T05:22:05;4.47;;;1.98;;
15913;SDS011;8055;51.930;8.840;2022-08-11T05:25:11;3.85;;;2.00;;
15913;SDS011;8055;51.930;8.840;2022-08-11T05:30:47;2.78;;;1.90;;
15913;SDS011;8055;51.930;8.840;2022-08-11T05:33:34;3.75;;;1.88;;
15913;SDS011;8055;51.930;8.840;2022-08-11T05:36:43;2.75;;;1.98;;
15913;SDS011;8055;51.930;8.840;2022-08-11T05:39:16;5.82;;;2.05;;
15913;SDS011;8055;51.930;8.840;2022-08-11T05:42:06;5.35;;;2.10;;
15913;SDS011;8055;51.930;8.840;2022-08-11T05:44:51;9.35;;;2.13;;
15913;SDS011;8055;51.930;8.840;2022-08-11T05:47:38;4.15;;;1.88;;
15913;SDS011;8055;51.930;8.840;2022-08-11T05:50:23;5.22;;;2.38;;
15913;SDS011;8055;51.930;8.840;2022-08-11T05:53:08;12.88;;;2.53;;
15913;SDS011;8055;51.930;8.840;2022-08-11T05:55:54;8.57;;;2.10;;
15913;SDS011;8055;51.930;8.840;2022-08-11T05:58:40;10.57;;;2.15;;
15913;SDS011;8055;51.930;8.840;2022-08-11T06:01:07;3.33;;;1.80;;
15913;SDS011;8055;51.930;8.840;2022-08-11T06:03:34;5.10;;;1.90;;
15913;SDS011;8055;51.930;8.840;2022-08-11T06:06:20;5.15;;;2.20;;
15913;SDS011;8055;51.930;8.840;2022-08-11T06:08:46;4.70;;;1.95;;
15913;SDS011;8055;51.930;8.840;2022-08-11T06:11:13;2.13;;;1.75;;
15913;SDS011;8055;51.930;8.840;2022-08-11T06:13:44;6.43;;;1.83;;
15913;SDS011;8055;51.930;8.840;2022-08-11T06:16:12;6.47;;;1.75;;
15913;SDS011;8055;51.930;8.840;2022-08-11T06:18:44;5.47;;;1.83;;
15913;SDS011;8055;51.930;8.840;2022-08-11T06:21:11;4.05;;;1.90;;
15913;SDS011;8055;51.930;8.840;2022-08-11T06:23:37;4.65;;;2.10;;
15913;SDS011;8055;51.930;8.840;2022-08-11T06:26:08;3.78;;;1.98;;
15913;SDS011;8055;51.930;8.840;2022-08-11T06:28:35;2.92;;;1.77;;
15913;SDS011;8055;51.930;8.840;2022-08-11T06:31:13;3.78;;;1.83;;
15913;SDS011;8055;51.930;8.840;2022-08-11T06:36:34;2.97;;;1.98;;
15913;SDS011;8055;51.930;8.840;2022-08-11T06:41:52;4.75;;;1.90;;
15913;SDS011;8055;51.930;8.840;2022-08-11T06:44:31;3.90;;;2.00;;
15913;SDS011;8055;51.930;8.840;2022-08-11T06:47:05;4.45;;;1.50;;
15913;SDS011;8055;51.930;8.840;2022-08-11T06:49:34;3.35;;;1.63;;
15913;SDS011;8055;51.930;8.840;2022-08-11T06:52:34;4.05;;;1.75;;
15913;SDS011;8055;51.930;8.840;2022-08-11T06:55:09;3.65;;;1.83;;
15913;SDS011;8055;51.930;8.840;2022-08-11T06:57:38;5.47;;;1.80;;
15913;SDS011;8055;51.930;8.840;2022-08-11T07:00:27;3.50;;;1.90;;
15913;SDS011;8055;51.930;8.840;2022-08-11T07:05:43;4.78;;;2.00;;
15913;SDS011;8055;51.930;8.840;2022-08-11T07:14:33;4.47;;;1.77;;
15913;SDS011;8055;51.930;8.840;2022-08-11T07:17:21;4.82;;;1.60;;
15913;SDS011;8055;51.930;8.840;2022-08-11T07:19:52;4.80;;;1.85;;
15913;SDS011;8055;51.930;8.840;2022-08-11T07:22:38;4.45;;;1.92;;
15913;SDS011;8055;51.930;8.840;2022-08-11T07:25:26;5.03;;;1.50;;
15913;SDS011;8055;51.930;8.840;2022-08-11T07:28:17;3.45;;;1.52;;
15913;SDS011;8055;51.930;8.840;2022-08-11T07:31:07;3.63;;;1.80;;
15913;SDS011;8055;51.930;8.840;2022-08-11T07:34:24;7.45;;;1.70;;
15913;SDS011;8055;51.930;8.840;2022-08-11T07:36:39;4.55;;;1.52;;
15913;SDS011;8055;51.930;8.840;2022-08-11T07:39:14;2.35;;;1.38;;
15913;SDS011;8055;51.930;8.840;2022-08-11T07:41:44;5.18;;;1.73;;
15913;SDS011;8055;51.930;8.840;2022-08-11T07:44:11;7.78;;;1.80;;
15913;SDS011;8055;51.930;8.840;2022-08-11T07:46:41;2.08;;;1.30;;
15913;SDS011;8055;51.930;8.840;2022-08-11T07:49:28;2.08;;;1.50;;
15913;SDS011;8055;51.930;8.840;2022-08-11T07:52:15;1.92;;;1.73;;
15913;SDS011;8055;51.930;8.840;2022-08-11T07:55:04;3.20;;;1.67;;
15913;SDS011;8055;51.930;8.840;2022-08-11T07:57:33;4.32;;;1.60;;
15913;SDS011;8055;51.930;8.840;2022-08-11T08:00:18;5.00;;;1.52;;
15913;SDS011;8055;51.930;8.840;2022-08-11T08:03:05;3.20;;;1.70;;
15913;SDS011;8055;51.930;8.840;2022-08-11T08:05:50;3.25;;;1.50;;
15913;SDS011;8055;51.930;8.840;2022-08-11T08:08:35;3.80;;;1.70;;
15913;SDS011;8055;51.930;8.840;2022-08-11T08:11:22;2.50;;;1.50;;
15913;SDS011;8055;51.930;8.840;2022-08-11T08:14:08;4.30;;;1.75;;
15913;SDS011;8055;51.930;8.840;2022-08-11T08:16:54;4.68;;;1.80;;
15913;SDS011;8055;51.930;8.840;2022-08-11T08:19:40;4.40;;;1.73;;
15913;SDS011;8055;51.930;8.840;2022-08-11T08:22:14;3.30;;;1.73;;
15913;SDS011;8055;51.930;8.840;2022-08-11T08:24:41;3.42;;;1.80;;
15913;SDS011;8055;51.930;8.840;2022-08-11T08:27:09;4.75;;;1.58;;
15913;SDS011;8055;51.930;8.840;2022-08-11T08:29:36;3.13;;;1.70;;
15913;SDS011;8055;51.930;8.840;2022-08-11T08:32:21;3.58;;;1.60;;
15913;SDS011;8055;51.930;8.840;2022-08-11T08:34:48;3.00;;;1.80;;
15913;SDS011;8055;51.930;8.840;2022-08-11T08:37:19;3.60;;;1.80;;
15913;SDS011;8055;51.930;8.840;2022-08-11T08:39:48;4.72;;;1.58;;
15913;SDS011;8055;51.930;8.840;2022-08-11T08:42:23;2.45;;;1.50;;
15913;SDS011;8055;51.930;8.840;2022-08-11T08:44:53;3.72;;;1.67;;
15913;SDS011;8055;51.930;8.840;2022-08-11T08:47:30;2.88;;;2.20;;
15913;SDS011;8055;51.930;8.840;2022-08-11T08:50:02;3.08;;;1.52;;
15913;SDS011;8055;51.930;8.840;2022-08-11T08:52:33;7.83;;;1.70;;
15913;SDS011;8055;51.930;8.840;2022-08-11T08:55:08;6.95;;;1.73;;
15913;SDS011;8055;51.930;8.840;2022-08-11T08:57:36;4.15;;;1.92;;
15913;SDS011;8055;51.930;8.840;2022-08-11T09:00:05;3.13;;;1.98;;
15913;SDS011;8055;51.930;8.840;2022-08-11T09:02:32;5.25;;;2.13;;
15913;SDS011;8055;51.930;8.840;2022-08-11T09:04:58;7.35;;;1.90;;
15913;SDS011;8055;51.930;8.840;2022-08-11T09:07:25;3.97;;;1.90;;
15913;SDS011;8055;51.930;8.840;2022-08-11T09:09:53;5.95;;;1.88;;
15913;SDS011;8055;51.930;8.840;2022-08-11T09:12:24;5.82;;;2.42;;
15913;SDS011;8055;51.930;8.840;2022-08-11T09:14:51;4.07;;;1.95;;
15913;SDS011;8055;51.930;8.840;2022-08-11T09:17:34;3.85;;;1.98;;
15913;SDS011;8055;51.930;8.840;2022-08-11T09:20:07;3.63;;;1.97;;
15913;SDS011;8055;51.930;8.840;2022-08-11T09:22:40;5.82;;;2.10;;
15913;SDS011;8055;51.930;8.840;2022-08-11T09:25:27;7.00;;;2.15;;
15913;SDS011;8055;51.930;8.840;2022-08-11T09:28:15;5.97;;;2.28;;
15913;SDS011;8055;51.930;8.840;2022-08-11T09:30:42;5.05;;;2.20;;
15913;SDS011;8055;51.930;8.840;2022-08-11T09:33:13;5.85;;;2.22;;
15913;SDS011;8055;51.930;8.840;2022-08-11T09:35:40;4.65;;;2.03;;
15913;SDS011;8055;51.930;8.840;2022-08-11T09:38:11;2.47;;;1.70;;
15913;SDS011;8055;51.930;8.840;2022-08-11T09:40:58;5.07;;;2.20;;
15913;SDS011;8055;51.930;8.840;2022-08-11T09:43:26;6.72;;;2.28;;
15913;SDS011;8055;51.930;8.840;2022-08-11T09:46:12;2.90;;;2.08;;
15913;SDS011;8055;51.930;8.840;2022-08-11T09:48:42;4.75;;;2.47;;
15913;SDS011;8055;51.930;8.840;2022-08-11T09:53:37;3.50;;;2.42;;
15913;SDS011;8055;51.930;8.840;2022-08-11T09:56:04;2.15;;;1.92;;
15913;SDS011;8055;51.930;8.840;2022-08-11T09:58:53;3.08;;;2.05;;
15913;SDS011;8055;51.930;8.840;2022-08-11T10:01:20;5.15;;;2.10;;
15913;SDS011;8055;51.930;8.840;2022-08-11T10:03:54;9.10;;;2.35;;
15913;SDS011;8055;51.930;8.840;2022-08-11T10:06:24;4.45;;;1.95;;
15913;SDS011;8055;51.930;8.840;2022-08-11T10:09:10;9.65;;;1.85;;
15913;SDS011;8055;51.930;8.840;2022-08-11T10:11:38;5.80;;;2.28;;
15913;SDS011;8055;51.930;8.840;2022-08-11T10:14:05;1.95;;;1.70;;
15913;SDS011;8055;51.930;8.840;2022-08-11T10:16:50;5.15;;;2.17;;
15913;SDS011;8055;51.930;8.840;2022-08-11T10:19:16;5.70;;;2.10;;
15913;SDS011;8055;51.930;8.840;2022-08-11T10:21:54;4.15;;;2.45;;
15913;SDS011;8055;51.930;8.840;2022-08-11T10:24:39;4.30;;;2.35;;
15913;SDS011;8055;51.930;8.840;2022-08-11T10:27:25;6.10;;;2.03;;
15913;SDS011;8055;51.930;8.840;2022-08-11T10:29:52;5.53;;;2.15;;
15913;SDS011;8055;51.930;8.840;2022-08-11T10:32:36;14.60;;;2.40;;
15913;SDS011;8055;51.930;8.840;2022-08-11T10:35:21;3.22;;;2.28;;
15913;SDS011;8055;51.930;8.840;2022-08-11T10:37:50;6.13;;;2.45;;
15913;SDS011;8055;51.930;8.840;2022-08-11T10:40:17;3.60;;;2.47;;
15913;SDS011;8055;51.930;8.840;2022-08-11T10:42:51;4.78;;;2.70;;
15913;SDS011;8055;51.930;8.840;2022-08-11T10:45:37;5.97;;;2.47;;
15913;SDS011;8055;51.930;8.840;2022-08-11T10:48:24;4.40;;;2.42;;
15913;SDS011;8055;51.930;8.840;2022-08-11T10:50:52;7.13;;;2.10;;
15913;SDS011;8055;51.930;8.840;2022-08-11T10:53:43;4.28;;;1.90;;
15913;SDS011;8055;51.930;8.840;2022-08-11T10:56:29;4.28;;;2.10;;
15913;SDS011;8055;51.930;8.840;2022-08-11T10:59:17;5.88;;;2.20;;
15913;SDS011;8055;51.930;8.840;2022-08-11T11:01:44;2.25;;;2.00;;
15913;SDS011;8055;51.930;8.840;2022-08-11T11:04:11;5.35;;;2.53;;
15913;SDS011;8055;51.930;8.840;2022-08-11T11:07:02;4.25;;;2.15;;
15913;SDS011;8055;51.930;8.840;2022-08-11T11:09:43;4.85;;;2.17;;
15913;SDS011;8055;51.930;8.840;2022-08-11T11:12:33;5.82;;;2.00;;
15913;SDS011;8055;51.930;8.840;2022-08-11T11:15:21;4.75;;;2.05;;
15913;SDS011;8055;51.930;8.840;2022-08-11T11:18:10;4.93;;;1.92;;
15913;SDS011;8055;51.930;8.840;2022-08-11T11:20:44;4.75;;;1.92;;
15913;SDS011;8055;51.930;8.840;2022-08-11T11:23:33;3.20;;;1.85;;
15913;SDS011;8055;51.930;8.840;2022-08-11T11:34:35;3.40;;;2.00;;
15913;SDS011;8055;51.930;8.840;2022-08-11T11:37:04;4.30;;;2.05;;
15913;SDS011;8055;51.930;8.840;2022-08-11T11:39:31;6.38;;;2.10;;
15913;SDS011;8055;51.930;8.840;2022-08-11T11:42:02;4.95;;;2.35;;
15913;SDS011;8055;51.930;8.840;2022-08-11T11:44:30;3.15;;;1.70;;
15913;SDS011;8055;51.930;8.840;2022-08-11T11:46:56;4.82;;;2.05;;
15913;SDS011;8055;51.930;8.840;2022-08-11T11:49:26;4.72;;;2.10;;
15913;SDS011;8055;51.930;8.840;2022-08-11T11:51:52;4.65;;;2.30;;
15913;SDS011;8055;51.930;8.840;2022-08-11T11:54:20;3.45;;;1.95;;
15913;SDS011;8055;51.930;8.840;2022-08-11T11:56:48;5.10;;;2.17;;
15913;SDS011;8055;51.930;8.840;2022-08-11T11:59:17;2.70;;;1.75;;
15913;SDS011;8055;51.930;8.840;2022-08-11T12:02:03;5.03;;;1.83;;
15913;SDS011;8055;51.930;8.840;2022-08-11T12:04:30;3.83;;;2.22;;
15913;SDS011;8055;51.930;8.840;2022-08-11T12:06:56;3.13;;;2.10;;
15913;SDS011;8055;51.930;8.840;2022-08-11T12:09:43;2.58;;;2.05;;
15913;SDS011;8055;51.930;8.840;2022-08-11T12:12:10;5.13;;;2.20;;
15913;SDS011;8055;51.930;8.840;2022-08-11T12:14:54;3.17;;;1.75;;
15913;SDS011;8055;51.930;8.840;2022-08-11T12:17:20;4.82;;;2.00;;
15913;SDS011;8055;51.930;8.840;2022-08-11T12:19:47;2.25;;;1.65;;
15913;SDS011;8055;51.930;8.840;2022-08-11T12:22:13;3.30;;;1.75;;
15913;SDS011;8055;51.930;8.840;2022-08-11T12:24:57;2.95;;;1.95;;
15913;SDS011;8055;51.930;8.840;2022-08-11T12:27:43;4.25;;;2.30;;
15913;SDS011;8055;51.930;8.840;2022-08-11T12:30:09;6.65;;;1.90;;
15913;SDS011;8055;51.930;8.840;2022-08-11T12:32:35;5.70;;;2.17;;
15913;SDS011;8055;51.930;8.840;2022-08-11T12:35:02;2.80;;;1.75;;
15913;SDS011;8055;51.930;8.840;2022-08-11T12:37:30;3.95;;;1.75;;
15913;SDS011;8055;51.930;8.840;2022-08-11T12:39:57;5.90;;;1.90;;
15913;SDS011;8055;51.930;8.840;2022-08-11T12:42:44;5.30;;;1.90;;
15913;SDS011;8055;51.930;8.840;2022-08-11T12:45:30;6.13;;;1.92;;
15913;SDS011;8055;51.930;8.840;2022-08-11T12:51:11;3.08;;;1.90;;
15913;SDS011;8055;51.930;8.840;2022-08-11T12:57:04;3.30;;;1.90;;
15913;SDS011;8055;51.930;8.840;2022-08-11T12:59:51;3.60;;;1.90;;
15913;SDS011;8055;51.930;8.840;2022-08-11T13:02:37;7.82;;;1.90;;
15913;SDS011;8055;51.930;8.840;2022-08-11T13:05:23;5.80;;;2.20;;
15913;SDS011;8055;51.930;8.840;2022-08-11T13:07:49;6.10;;;1.80;;
15913;SDS011;8055;51.930;8.840;2022-08-11T13:10:16;4.60;;;1.88;;
15913;SDS011;8055;51.930;8.840;2022-08-11T13:13:12;4.28;;;2.03;;
15913;SDS011;8055;51.930;8.840;2022-08-11T13:15:39;3.38;;;1.40;;
15913;SDS011;8055;51.930;8.840;2022-08-11T13:18:06;1.85;;;1.70;;
15913;SDS011;8055;51.930;8.840;2022-08-11T13:20:32;4.00;;;1.58;;
15913;SDS011;8055;51.930;8.840;2022-08-11T13:22:59;2.22;;;1.77;;
15913;SDS011;8055;51.930;8.840;2022-08-11T13:25:26;2.72;;;1.67;;
15913;SDS011;8055;51.930;8.840;2022-08-11T13:27:55;2.78;;;2.03;;
15913;SDS011;8055;51.930;8.840;2022-08-11T13:30:25;3.67;;;2.00;;
15913;SDS011;8055;51.930;8.840;2022-08-11T13:33:11;2.33;;;1.58;;
15913;SDS011;8055;51.930;8.840;2022-08-11T13:35:37;2.40;;;1.80;;
15913;SDS011;8055;51.930;8.840;2022-08-11T13:38:05;3.47;;;1.77;;
15913;SDS011;8055;51.930;8.840;2022-08-11T13:40:32;1.73;;;1.63;;
15913;SDS011;8055;51.930;8.840;2022-08-11T13:42:57;4.10;;;2.10;;
15913;SDS011;8055;51.930;8.840;2022-08-11T13:45:24;1.98;;;1.75;;
15913;SDS011;8055;51.930;8.840;2022-08-11T13:47:51;2.45;;;1.90;;
15913;SDS011;8055;51.930;8.840;2022-08-11T13:50:22;3.35;;;1.77;;
15913;SDS011;8055;51.930;8.840;2022-08-11T13:53:14;2.63;;;1.70;;
15913;SDS011;8055;51.930;8.840;2022-08-11T13:55:41;4.43;;;1.95;;
15913;SDS011;8055;51.930;8.840;2022-08-11T13:58:08;3.97;;;1.83;;
15913;SDS011;8055;51.930;8.840;2022-08-11T14:00:35;5.13;;;1.73;;
15913;SDS011;8055;51.930;8.840;2022-08-11T14:03:01;3.78;;;1.65;;
15913;SDS011;8055;51.930;8.840;2022-08-11T14:05:31;3.90;;;2.03;;
15913;SDS011;8055;51.930;8.840;2022-08-11T14:08:03;3.95;;;2.00;;
15913;SDS011;8055;51.930;8.840;2022-08-11T14:10:36;3.75;;;2.00;;
15913;SDS011;8055;51.930;8.840;2022-08-11T14:13:06;5.72;;;1.70;;
15913;SDS011;8055;51.930;8.840;2022-08-11T14:15:53;5.00;;;1.73;;
15913;SDS011;8055;51.930;8.840;2022-08-11T14:18:27;3.63;;;1.58;;
15913;SDS011;8055;51.930;8.840;2022-08-11T14:21:03;4.15;;;1.75;;
15913;SDS011;8055;51.930;8.840;2022-08-11T14:23:51;8.32;;;1.90;;
15913;SDS011;8055;51.930;8.840;2022-08-11T14:26:19;2.10;;;1.85;;
15913;SDS011;8055;51.930;8.840;2022-08-11T14:29:04;3.33;;;1.85;;
15913;SDS011;8055;51.930;8.840;2022-08-11T14:31:32;3.38;;;1.63;;
15913;SDS011;8055;51.930;8.840;2022-08-11T14:34:02;7.13;;;2.03;;
15913;SDS011;8055;51.930;8.840;2022-08-11T14:36:30;4.70;;;1.85;;
15913;SDS011;8055;51.930;8.840;2022-08-11T14:39:00;2.28;;;2.05;;
15913;SDS011;8055;51.930;8.840;2022-08-11T14:41:37;5.80;;;1.98;;
15913;SDS011;8055;51.930;8.840;2022-08-11T14:44:26;2.42;;;1.65;;
15913;SDS011;8055;51.930;8.840;2022-08-11T14:47:11;6.95;;;1.88;;
15913;SDS011;8055;51.930;8.840;2022-08-11T14:49:40;7.38;;;1.90;;
15913;SDS011;8055;51.930;8.840;2022-08-11T14:52:08;3.00;;;1.90;;
15913;SDS011;8055;51.930;8.840;2022-08-11T14:54:38;3.67;;;1.90;;
15913;SDS011;8055;51.930;8.840;2022-08-11T14:57:25;6.47;;;1.92;;
15913;SDS011;8055;51.930;8.840;2022-08-11T14:59:52;5.32;;;1.92;;
15913;SDS011;8055;51.930;8.840;2022-08-11T15:02:21;2.55;;;1.73;;
15913;SDS011;8055;51.930;8.840;2022-08-11T15:05:06;3.28;;;1.88;;
15913;SDS011;8055;51.930;8.840;2022-08-11T15:07:32;3.90;;;2.15;;
15913;SDS011;8055;51.930;8.840;2022-08-11T15:09:59;6.05;;;2.08;;
15913;SDS011;8055;51.930;8.840;2022-08-11T15:12:27;3.40;;;2.10;;
15913;SDS011;8055;51.930;8.840;2022-08-11T15:14:53;3.40;;;2.00;;
15913;SDS011;8055;51.930;8.840;2022-08-11T15:17:38;4.28;;;1.90;;
15913;SDS011;8055;51.930;8.840;2022-08-11T15:20:06;2.42;;;1.90;;
15913;SDS011;8055;51.930;8.840;2022-08-11T15:22:52;3.97;;;2.10;;
15913;SDS011;8055;51.930;8.840;2022-08-11T15:25:36;3.10;;;1.88;;
15913;SDS011;8055;51.930;8.840;2022-08-11T15:28:02;6.90;;;2.53;;
15913;SDS011;8055;51.930;8.840;2022-08-11T15:30:52;4.45;;;2.00;;
15913;SDS011;8055;51.930;8.840;2022-08-11T15:33:38;3.45;;;2.03;;
15913;SDS011;8055;51.930;8.840;2022-08-11T15:36:24;3.58;;;2.10;;
15913;SDS011;8055;51.930;8.840;2022-08-11T15:39:18;2.38;;;2.17;;
15913;SDS011;8055;51.930;8.840;2022-08-11T15:41:47;4.57;;;2.22;;
15913;SDS011;8055;51.930;8.840;2022-08-11T15:44:36;5.40;;;2.58;;
15913;SDS011;8055;51.930;8.840;2022-08-11T15:47:28;5.43;;;2.53;;
15913;SDS011;8055;51.930;8.840;2022-08-11T15:50:00;8.43;;;2.80;;
15913;SDS011;8055;51.930;8.840;2022-08-11T15:52:30;5.68;;;2.50;;
15913;SDS011;8055;51.930;8.840;2022-08-11T15:54:59;6.07;;;2.38;;
15913;SDS011;8055;51.930;8.840;2022-08-11T15:57:29;5.70;;;2.20;;
15913;SDS011;8055;51.930;8.840;2022-08-11T16:00:13;3.05;;;2.17;;
15913;SDS011;8055;51.930;8.840;2022-08-11T16:02:59;5.13;;;2.28;;
15913;SDS011;8055;51.930;8.840;2022-08-11T16:05:46;4.43;;;2.50;;
15913;SDS011;8055;51.930;8.840;2022-08-11T16:08:13;3.28;;;2.13;;
15913;SDS011;8055;51.930;8.840;2022-08-11T16:10:41;4.55;;;2.60;;
15913;SDS011;8055;51.930;8.840;2022-08-11T16:13:08;5.15;;;2.35;;
15913;SDS011;8055;51.930;8.840;2022-08-11T16:15:37;4.85;;;2.42;;
15913;SDS011;8055;51.930;8.840;2022-08-11T16:18:24;6.43;;;2.75;;
15913;SDS011;8055;51.930;8.840;2022-08-11T16:21:06;7.60;;;2.30;;
15913;SDS011;8055;51.930;8.840;2022-08-11T16:23:35;5.28;;;2.10;;
15913;SDS011;8055;51.930;8.840;2022-08-11T16:26:04;7.93;;;2.40;;
15913;SDS011;8055;51.930;8.840;2022-08-11T16:28:30;5.25;;;2.35;;
15913;SDS011;8055;51.930;8.840;2022-08-11T16:30:59;5.90;;;2.40;;
15913;SDS011;8055;51.930;8.840;2022-08-11T16:33:26;3.92;;;2.30;;
15913;SDS011;8055;51.930;8.840;2022-08-11T16:35:54;7.25;;;2.22;;
15913;SDS011;8055;51.930;8.840;2022-08-11T16:38:39;2.58;;;2.10;;
15913;SDS011;8055;51.930;8.840;2022-08-11T16:41:07;4.47;;;2.55;;
15913;SDS011;8055;51.930;8.840;2022-08-11T16:43:37;5.40;;;2.25;;
15913;SDS011;8055;51.930;8.840;2022-08-11T16:46:23;3.70;;;2.70;;
15913;SDS011;8055;51.930;8.840;2022-08-11T16:49:16;4.63;;;2.38;;
15913;SDS011;8055;51.930;8.840;2022-08-11T16:51:44;6.20;;;2.00;;
15913;SDS011;8055;51.930;8.840;2022-08-11T16:54:09;2.83;;;2.10;;
15913;SDS011;8055;51.930;8.840;2022-08-11T16:56:38;2.00;;;1.80;;
15913;SDS011;8055;51.930;8.840;2022-08-11T16:59:11;2.72;;;1.90;;
15913;SDS011;8055;51.930;8.840;2022-08-11T17:07:04;4.18;;;2.50;;
15913;SDS011;8055;51.930;8.840;2022-08-11T17:09:49;4.97;;;2.13;;
15913;SDS011;8055;51.930;8.840;2022-08-11T17:12:36;7.30;;;2.35;;
15913;SDS011;8055;51.930;8.840;2022-08-11T17:15:22;3.88;;;2.25;;
15913;SDS011;8055;51.930;8.840;2022-08-11T17:18:07;2.58;;;1.90;;
15913;SDS011;8055;51.930;8.840;2022-08-11T17:20:58;4.57;;;1.90;;
15913;SDS011;8055;51.930;8.840;2022-08-11T17:23:26;4.53;;;1.90;;
15913;SDS011;8055;51.930;8.840;2022-08-11T17:26:22;2.88;;;2.00;;
15913;SDS011;8055;51.930;8.840;2022-08-11T17:28:56;2.85;;;1.65;;
15913;SDS011;8055;51.930;8.840;2022-08-11T17:31:23;2.85;;;1.83;;
15913;SDS011;8055;51.930;8.840;2022-08-11T17:34:09;5.40;;;2.33;;
15913;SDS011;8055;51.930;8.840;2022-08-11T17:36:54;4.75;;;1.95;;
15913;SDS011;8055;51.930;8.840;2022-08-11T17:39:23;5.00;;;1.90;;
15913;SDS011;8055;51.930;8.840;2022-08-11T17:41:53;3.42;;;1.80;;
15913;SDS011;8055;51.930;8.840;2022-08-11T17:44:38;2.75;;;2.10;;
15913;SDS011;8055;51.930;8.840;2022-08-11T17:47:24;6.78;;;1.92;;
15913;SDS011;8055;51.930;8.840;2022-08-11T17:50:17;8.45;;;2.08;;
15913;SDS011;8055;51.930;8.840;2022-08-11T17:52:43;7.10;;;1.90;;
15913;SDS011;8055;51.930;8.840;2022-08-11T17:55:29;2.38;;;1.55;;
15913;SDS011;8055;51.930;8.840;2022-08-11T17:58:14;3.08;;;1.90;;
15913;SDS011;8055;51.930;8.840;2022-08-11T18:01:00;4.63;;;2.20;;
15913;SDS011;8055;51.930;8.840;2022-08-11T18:03:28;7.78;;;1.70;;
15913;SDS011;8055;51.930;8.840;2022-08-11T18:05:57;4.60;;;1.90;;
15913;SDS011;8055;51.930;8.840;2022-08-11T18:08:25;5.18;;;2.00;;
15913;SDS011;8055;51.930;8.840;2022-08-11T18:11:13;4.25;;;2.30;;
15913;SDS011;8055;51.930;8.840;2022-08-11T18:13:59;4.93;;;1.98;;
15913;SDS011;8055;51.930;8.840;2022-08-11T18:16:46;3.13;;;1.88;;
15913;SDS011;8055;51.930;8.840;2022-08-11T18:19:30;5.32;;;2.20;;
15913;SDS011;8055;51.930;8.840;2022-08-11T18:22:19;3.13;;;2.20;;
15913;SDS011;8055;51.930;8.840;2022-08-11T18:25:12;4.15;;;2.40;;
15913;SDS011;8055;51.930;8.840;2022-08-11T18:27:58;5.00;;;2.15;;
15913;SDS011;8055;51.930;8.840;2022-08-11T18:30:47;4.88;;;2.10;;
15913;SDS011;8055;51.930;8.840;2022-08-11T18:33:38;7.38;;;1.90;;
15913;SDS011;8055;51.930;8.840;2022-08-11T18:36:28;8.75;;;2.40;;
15913;SDS011;8055;51.930;8.840;2022-08-11T18:39:19;6.95;;;2.10;;
15913;SDS011;8055;51.930;8.840;2022-08-11T18:42:06;3.42;;;1.70;;
15913;SDS011;8055;51.930;8.840;2022-08-11T18:44:54;6.22;;;2.10;;
15913;SDS011;8055;51.930;8.840;2022-08-11T18:47:42;2.20;;;2.00;;
15913;SDS011;8055;51.930;8.840;2022-08-11T18:50:28;3.22;;;2.08;;
15913;SDS011;8055;51.930;8.840;2022-08-11T18:53:12;3.10;;;2.22;;
15913;SDS011;8055;51.930;8.840;2022-08-11T18:55:58;5.07;;;2.10;;
15913;SDS011;8055;51.930;8.840;2022-08-11T18:58:43;2.63;;;1.95;;
15913;SDS011;8055;51.930;8.840;2022-08-11T19:01:30;3.15;;;1.95;;
15913;SDS011;8055;51.930;8.840;2022-08-11T19:04:19;2.55;;;2.08;;
15913;SDS011;8055;51.930;8.840;2022-08-11T19:07:04;2.88;;;2.58;;
15913;SDS011;8055;51.930;8.840;2022-08-11T19:09:50;4.03;;;2.38;;
15913;SDS011;8055;51.930;8.840;2022-08-11T19:12:38;3.97;;;3.00;;
15913;SDS011;8055;51.930;8.840;2022-08-11T19:15:24;5.45;;;2.65;;
15913;SDS011;8055;51.930;8.840;2022-08-11T19:18:11;5.75;;;2.58;;
15913;SDS011;8055;51.930;8.840;2022-08-11T19:20:59;2.63;;;2.20;;
15913;SDS011;8055;51.930;8.840;2022-08-11T19:23:45;2.85;;;2.28;;
15913;SDS011;8055;51.930;8.840;2022-08-11T19:26:33;4.07;;;2.30;;
15913;SDS011;8055;51.930;8.840;2022-08-11T19:29:18;4.65;;;2.40;;
15913;SDS011;8055;51.930;8.840;2022-08-11T19:32:03;5.53;;;2.20;;
15913;SDS011;8055;51.930;8.840;2022-08-11T19:34:48;6.25;;;2.92;;
15913;SDS011;8055;51.930;8.840;2022-08-11T19:37:35;3.50;;;2.00;;
15913;SDS011;8055;51.930;8.840;2022-08-11T19:40:20;3.47;;;2.20;;
15913;SDS011;8055;51.930;8.840;2022-08-11T19:43:05;6.25;;;2.33;;
15913;SDS011;8055;51.930;8.840;2022-08-11T19:45:52;3.95;;;2.70;;
15913;SDS011;8055;51.930;8.840;2022-08-11T19:48:39;4.88;;;2.47;;
15913;SDS011;8055;51.930;8.840;2022-08-11T19:51:26;7.72;;;2.72;;
15913;SDS011;8055;51.930;8.840;2022-08-11T19:54:11;4.80;;;2.38;;